KCXP

Carson Airport

Carson City, Nevada, USA
KCXP 261138Z 2612/2712 VRB03KT P6SM BKN200 FM262000 09008KT P6SM SCT130 SCT200 FM270000 26009KT P6SM VCSH BKN080 OVC130 FM270600 24007KT P6SM SCT090 BKN150
Issued Valid From Valid To
Apr-26 @ 11:38 UTC
(2 hours ago)
Apr-26 @ 12:00 UTC
(2 hours ago)
Apr-27 @ 12:00 UTC
(in 22 hours)
Apr-26 @ 12:00 to Apr-26 @ 20:00
KCXP 261138Z 2612/2712 VRB03KT P6SM BKN200
Wind Visibility Clouds
Variable at 3 knots Greater than 6 miles
  • Broken at 20,000' AGL
From Apr-26 @ 20:00 to Apr-27 @ 00:00
FM262000 09008KT P6SM SCT130 SCT200
Wind Visibility Clouds
90° at 8 knots Greater than 6 miles
  • Scattered at 13,000' AGL
  • Scattered at 20,000' AGL
From Apr-27 @ 00:00 to Apr-27 @ 06:00
FM270000 26009KT P6SM VCSH BKN080 OVC130
Wind Visibility Clouds
260° at 9 knots Greater than 6 miles
  • Broken at 8,000' AGL
  • Overcast at 13,000' AGL
From Apr-27 @ 06:00 to Apr-27 @ 12:00
FM270600 24007KT P6SM SCT090 BKN150
Wind Visibility Clouds
240° at 7 knots Greater than 6 miles
  • Scattered at 9,000' AGL
  • Broken at 15,000' AGL
KCXP 261138Z 2612/2712 VRB03KT P6SM BKN200 FM262000 09008KT P6SM SCT130 SCT200 FM270000 26009KT P6SM VCSH BKN080 OVC130 FM270600 24007KT P6SM SCT090 BKN150
Issued Apr-26 @ 11:38 UTC
(2 hours ago)
Valid From Apr-26 @ 12:00 UTC
(2 hours ago)
Valid To Apr-27 @ 12:00 UTC
(in 22 hours)
Apr-26 @ 12:00 - Apr-26 @ 20:00
Wind Visibility
Variable at 3 knots Greater than 6 miles
Clouds
  • Broken at 20,000' AGL
From Apr-26 @ 20:00 - Apr-27 @ 00:00
Wind Visibility
90° at 8 knots Greater than 6 miles
Clouds
  • Scattered at 13,000' AGL
  • Scattered at 20,000' AGL
From Apr-27 @ 00:00 - Apr-27 @ 06:00
Wind Visibility
260° at 9 knots Greater than 6 miles
Clouds
  • Broken at 8,000' AGL
  • Overcast at 13,000' AGL
From Apr-27 @ 06:00 - Apr-27 @ 12:00
Wind Visibility
240° at 7 knots Greater than 6 miles
Clouds
  • Scattered at 9,000' AGL
  • Broken at 15,000' AGL